Time;durP1;ratioP1;P1;durP2;ratioP2;P2;SDS_P1;SDS_P2;PMS_P1;PMS_P2;Temp;Humidity;BMP_temperature;BMP_pressure;BME280_temperature;BME280_humidity;BME280_pressure;Samples;Min_cycle;Max_cycle;Signal;HPM_P1;HPM_P2
2023/08/29 00:00:48;;;;;;;;;;;13.90;99.90;;;;;;2072545;28;19917;-72
2023/08/29 00:01:49;;;;;;;;;;;13.90;99.90;;;;;;2054851;28;19957;-72
2023/08/29 00:02:49;;;;;;;;;;;13.90;99.90;;;;;;2068374;28;19909;-72
2023/08/29 00:03:51;;;;;;;;;;;13.90;99.90;;;;;;2077022;28;19987;-72
2023/08/29 00:04:51;;;;;;;;;;;13.90;99.90;;;;;;2076884;28;19932;-72
2023/08/29 00:05:58;;;;;;;;;;;13.90;99.90;;;;;;2076089;28;20407;-72
2023/08/29 00:06:58;;;;;;;;;;;13.90;99.90;;;;;;2076326;28;19914;-73
2023/08/29 00:07:59;;;;;;;;;;;13.90;99.90;;;;;;2076259;28;19924;-72
2023/08/29 00:08:59;;;;;;;;;;;13.90;99.90;;;;;;2076549;28;20368;-72
2023/08/29 00:10:00;;;;;;;;;;;13.90;99.90;;;;;;2076452;28;20012;-72
2023/08/29 00:11:02;;;;;;;;;;;13.90;99.90;;;;;;2075922;28;19913;-73
2023/08/29 00:12:03;;;;;;;;;;;13.90;99.90;;;;;;2059920;28;19918;-72
2023/08/29 00:13:04;;;;;;;;;;;13.90;99.90;;;;;;2067686;28;19917;-72
2023/08/29 00:14:05;;;;;;;;;;;13.90;99.90;;;;;;2071855;28;19921;-72
2023/08/29 00:15:06;;;;;;;;;;;13.90;99.90;;;;;;2073458;28;19916;-70
2023/08/29 00:16:07;;;;;;;;;;;13.90;99.90;;;;;;2080221;28;20394;-72
2023/08/29 00:17:07;;;;;;;;;;;13.90;99.90;;;;;;2077546;28;19921;-72
2023/08/29 00:18:08;;;;;;;;;;;13.90;99.90;;;;;;2084514;28;20001;-72
2023/08/29 00:19:08;;;;;;;;;;;13.90;99.90;;;;;;2076793;28;19913;-72
2023/08/29 00:20:10;;;;;;;;;;;13.90;99.90;;;;;;2076851;28;19983;-72
2023/08/29 00:21:10;;;;;;;;;;;13.90;99.90;;;;;;2077052;28;19920;-73
2023/08/29 00:22:11;;;;;;;;;;;13.90;99.90;;;;;;2075850;28;19913;-73
2023/08/29 00:23:11;;;;;;;;;;;13.90;99.90;;;;;;2075921;28;19959;-73
2023/08/29 00:24:12;;;;;;;;;;;13.90;99.90;;;;;;2084471;28;19951;-73
2023/08/29 00:25:12;;;;;;;;;;;13.90;99.90;;;;;;2084468;28;19916;-73
2023/08/29 00:26:13;;;;;;;;;;;13.90;99.90;;;;;;2067689;28;19917;-73
2023/08/29 00:27:14;;;;;;;;;;;13.90;99.90;;;;;;2068184;28;19920;-72
2023/08/29 00:28:14;;;;;;;;;;;13.90;99.90;;;;;;2078078;28;19920;-73
2023/08/29 00:29:16;;;;;;;;;;;13.90;99.90;;;;;;2080156;28;20418;-72
2023/08/29 00:30:16;;;;;;;;;;;13.90;99.90;;;;;;2076252;28;20003;-73
2023/08/29 00:31:17;;;;;;;;;;;13.90;99.90;;;;;;2081888;28;20388;-73
2023/08/29 00:32:17;;;;;;;;;;;13.90;99.90;;;;;;2067870;28;20546;-73
2023/08/29 00:33:18;;;;;;;;;;;13.90;99.90;;;;;;2068041;28;20037;-73
2023/08/29 00:34:18;;;;;;;;;;;13.90;99.90;;;;;;2082180;28;20071;-73
2023/08/29 00:35:19;;;;;;;;;;;13.90;99.90;;;;;;2074365;28;20426;-73
2023/08/29 00:36:19;;;;;;;;;;;13.90;99.90;;;;;;2076023;28;19925;-74
2023/08/29 00:37:20;;;;;;;;;;;13.90;99.90;;;;;;2069504;28;20412;-73
2023/08/29 00:38:20;;;;;;;;;;;13.90;99.90;;;;;;2072741;28;19920;-73
2023/08/29 00:39:21;;;;;;;;;;;13.90;99.90;;;;;;2076215;28;22745;-72
2023/08/29 00:40:22;;;;;;;;;;;13.80;99.90;;;;;;2075372;28;20195;-72
2023/08/29 00:41:23;;;;;;;;;;;13.80;99.90;;;;;;2067914;28;19936;-72
2023/08/29 00:42:25;;;;;;;;;;;13.80;99.90;;;;;;2067942;28;19924;-72
2023/08/29 00:43:25;;;;;;;;;;;13.80;99.90;;;;;;2067794;28;20089;-72
2023/08/29 00:44:26;;;;;;;;;;;13.80;99.90;;;;;;2076145;28;20051;-73
2023/08/29 00:45:30;;;;;;;;;;;13.80;99.90;;;;;;2072345;28;19913;-73
2023/08/29 00:46:31;;;;;;;;;;;13.80;99.90;;;;;;2075637;28;20396;-75
2023/08/29 00:47:31;;;;;;;;;;;13.90;99.90;;;;;;2063802;28;19914;-73
2023/08/29 00:48:32;;;;;;;;;;;13.90;99.90;;;;;;2067237;28;20383;-72
2023/08/29 00:49:33;;;;;;;;;;;13.90;99.90;;;;;;2075285;28;19917;-72
2023/08/29 00:50:34;;;;;;;;;;;13.80;99.90;;;;;;2076159;28;19917;-72
2023/08/29 00:51:35;;;;;;;;;;;13.80;99.90;;;;;;2080329;28;19917;-72
2023/08/29 00:52:35;;;;;;;;;;;13.80;99.90;;;;;;2084121;28;19921;-72
2023/08/29 00:53:36;;;;;;;;;;;13.80;99.90;;;;;;2084056;28;19939;-73
2023/08/29 00:54:37;;;;;;;;;;;13.80;99.90;;;;;;2084269;28;20302;-71
2023/08/29 00:55:37;;;;;;;;;;;13.80;99.90;;;;;;2080064;28;19960;-72
2023/08/29 00:56:38;;;;;;;;;;;13.80;99.90;;;;;;2066626;28;20354;-72
2023/08/29 00:57:39;;;;;;;;;;;13.80;99.90;;;;;;2060009;28;20023;-72
2023/08/29 00:58:39;;;;;;;;;;;13.80;99.90;;;;;;2076036;28;20014;-73
2023/08/29 00:59:40;;;;;;;;;;;13.80;99.90;;;;;;2072512;28;19913;-73
2023/08/29 01:00:41;;;;;;;;;;;13.90;99.90;;;;;;2075919;28;19913;-73
2023/08/29 01:01:43;;;;;;;;;;;13.80;99.90;;;;;;2081072;28;19916;-73
2023/08/29 01:02:43;;;;;;;;;;;13.80;99.90;;;;;;2075936;28;20379;-72
2023/08/29 01:03:44;;;;;;;;;;;13.80;99.90;;;;;;2070696;28;19928;-73
2023/08/29 01:04:44;;;;;;;;;;;13.80;99.90;;;;;;2078744;28;19924;-73
2023/08/29 01:05:45;;;;;;;;;;;13.80;99.90;;;;;;2073751;28;20032;-72
2023/08/29 01:06:47;;;;;;;;;;;13.80;99.90;;;;;;2075424;28;20372;-73
2023/08/29 01:07:48;;;;;;;;;;;13.80;99.90;;;;;;2067767;28;19918;-73
2023/08/29 01:08:49;;;;;;;;;;;13.90;99.90;;;;;;2075872;28;19913;-73
2023/08/29 01:09:49;;;;;;;;;;;13.90;99.90;;;;;;2076410;28;20303;-73
2023/08/29 01:11:08;;;;;;;;;;;13.90;99.90;;;;;;2075805;28;20525;-73
2023/08/29 01:12:15;;;;;;;;;;;13.90;99.90;;;;;;2065691;28;19917;-73
2023/08/29 01:13:22;;;;;;;;;;;13.90;99.90;;;;;;2066864;28;20192;-73
2023/08/29 01:14:35;;;;;;;;;;;13.90;99.90;;;;;;2060402;28;19921;-74
2023/08/29 01:15:36;;;;;;;;;;;13.90;99.90;;;;;;2062382;28;19917;-74
2023/08/29 01:16:40;;;;;;;;;;;13.90;99.90;;;;;;2075797;28;20306;-74
2023/08/29 01:17:44;;;;;;;;;;;13.90;99.90;;;;;;2076095;28;20334;-73
2023/08/29 01:18:46;;;;;;;;;;;13.90;99.90;;;;;;2076415;28;19924;-72
2023/08/29 01:19:51;;;;;;;;;;;13.90;99.90;;;;;;2077834;28;19917;-73
2023/08/29 01:20:58;;;;;;;;;;;13.90;99.90;;;;;;2076375;28;20131;-73
2023/08/29 01:22:18;;;;;;;;;;;13.90;99.90;;;;;;2075012;28;19944;-73
2023/08/29 01:23:29;;;;;;;;;;;13.90;99.90;;;;;;2070076;28;19917;-73
2023/08/29 01:24:34;;;;;;;;;;;13.80;99.90;;;;;;2076264;28;20354;-73
2023/08/29 01:25:54;;;;;;;;;;;13.80;99.90;;;;;;2076883;28;19921;-73
2023/08/29 01:26:55;;;;;;;;;;;13.70;99.90;;;;;;2082563;28;20390;-74
2023/08/29 01:27:56;;;;;;;;;;;13.70;99.90;;;;;;2076181;28;19921;-73
2023/08/29 01:28:57;;;;;;;;;;;13.70;99.90;;;;;;2068096;28;19917;-74
2023/08/29 01:30:00;;;;;;;;;;;13.70;99.90;;;;;;2067723;28;19917;-74
2023/08/29 01:31:01;;;;;;;;;;;13.70;99.90;;;;;;2075622;28;19913;-74
2023/08/29 01:32:03;;;;;;;;;;;13.60;99.90;;;;;;2076792;28;20341;-75
2023/08/29 01:33:03;;;;;;;;;;;13.60;99.90;;;;;;2069217;28;19917;-75
2023/08/29 01:34:04;;;;;;;;;;;13.60;99.90;;;;;;2076037;28;19971;-75
2023/08/29 01:35:06;;;;;;;;;;;13.60;99.90;;;;;;2080148;28;20559;-74
2023/08/29 01:36:07;;;;;;;;;;;13.60;99.90;;;;;;2077275;28;19964;-74
2023/08/29 01:37:07;;;;;;;;;;;13.60;99.90;;;;;;2081237;28;20284;-74
2023/08/29 01:38:10;;;;;;;;;;;13.60;99.90;;;;;;2080063;28;19929;-74
2023/08/29 01:39:10;;;;;;;;;;;13.60;99.90;;;;;;2072061;28;20277;-75
2023/08/29 01:40:13;;;;;;;;;;;13.60;99.90;;;;;;2068550;28;19913;-74
2023/08/29 01:41:15;;;;;;;;;;;13.60;99.90;;;;;;2076745;28;19921;-75
2023/08/29 01:42:16;;;;;;;;;;;13.60;99.90;;;;;;2075962;28;19917;-74
2023/08/29 01:43:17;;;;;;;;;;;13.60;99.90;;;;;;2067326;28;19917;-75
2023/08/29 01:44:17;;;;;;;;;;;13.60;99.90;;;;;;2075346;28;20572;-74
2023/08/29 01:45:18;;;;;;;;;;;13.60;99.90;;;;;;2076651;28;20407;-74
2023/08/29 01:46:18;;;;;;;;;;;13.60;99.90;;;;;;2075645;28;20347;-74
2023/08/29 01:47:19;;;;;;;;;;;13.60;99.90;;;;;;2075788;28;19913;-75
2023/08/29 01:48:21;;;;;;;;;;;13.60;99.90;;;;;;2073970;28;20007;-75
2023/08/29 01:49:22;;;;;;;;;;;13.60;99.90;;;;;;2071433;28;19924;-75
2023/08/29 01:50:22;;;;;;;;;;;13.60;99.90;;;;;;2074024;28;19952;-73
2023/08/29 01:51:23;;;;;;;;;;;13.60;99.90;;;;;;2076642;28;20794;-73
2023/08/29 01:52:25;;;;;;;;;;;13.60;99.90;;;;;;2067234;28;19921;-74
2023/08/29 01:53:26;;;;;;;;;;;13.60;99.90;;;;;;2067337;28;20315;-74
2023/08/29 01:54:26;;;;;;;;;;;13.60;99.90;;;;;;2076030;28;20642;-74
2023/08/29 01:55:28;;;;;;;;;;;13.60;99.90;;;;;;2076213;28;20347;-73
2023/08/29 01:56:29;;;;;;;;;;;13.60;99.90;;;;;;2083670;28;19921;-74
2023/08/29 01:57:33;;;;;;;;;;;13.60;99.90;;;;;;2076568;28;19975;-74
2023/08/29 01:58:35;;;;;;;;;;;13.60;99.90;;;;;;2067101;28;19924;-74
2023/08/29 01:59:36;;;;;;;;;;;13.60;99.90;;;;;;2059287;28;19918;-74
2023/08/29 02:00:37;;;;;;;;;;;13.60;99.90;;;;;;2063093;28;19983;-73
2023/08/29 02:01:38;;;;;;;;;;;13.70;99.90;;;;;;2051325;28;19984;-73
2023/08/29 02:02:38;;;;;;;;;;;13.60;99.90;;;;;;2059272;28;20078;-73
2023/08/29 02:03:39;;;;;;;;;;;13.60;99.90;;;;;;2075175;28;20060;-73
2023/08/29 02:04:39;;;;;;;;;;;13.60;99.90;;;;;;2075996;28;19913;-73
2023/08/29 02:05:41;;;;;;;;;;;13.60;99.90;;;;;;2076167;28;20009;-73
2023/08/29 02:06:42;;;;;;;;;;;13.60;99.90;;;;;;2079709;28;19916;-73
2023/08/29 02:07:42;;;;;;;;;;;13.70;99.90;;;;;;2075079;28;20009;-74
2023/08/29 02:08:44;;;;;;;;;;;13.70;99.90;;;;;;2075510;28;20376;-75
2023/08/29 02:09:45;;;;;;;;;;;13.70;99.90;;;;;;2068250;28;19932;-74
2023/08/29 02:10:45;;;;;;;;;;;13.70;99.90;;;;;;2067047;28;20004;-74
2023/08/29 02:11:46;;;;;;;;;;;13.60;99.90;;;;;;2075287;28;19920;-74
2023/08/29 02:12:47;;;;;;;;;;;13.70;99.90;;;;;;2075269;28;20123;-74
2023/08/29 02:13:47;;;;;;;;;;;13.60;99.90;;;;;;2076109;28;19923;-74
2023/08/29 02:14:48;;;;;;;;;;;13.60;99.90;;;;;;2075060;28;19936;-74
2023/08/29 02:15:48;;;;;;;;;;;13.60;99.90;;;;;;2061885;28;19917;-75
2023/08/29 02:16:49;;;;;;;;;;;13.60;99.90;;;;;;2066684;28;20110;-73
2023/08/29 02:17:51;;;;;;;;;;;13.60;99.90;;;;;;2066849;28;20012;-74
2023/08/29 02:18:52;;;;;;;;;;;13.60;99.90;;;;;;2071651;28;20400;-73
2023/08/29 02:19:52;;;;;;;;;;;13.60;99.90;;;;;;2073597;28;19952;-73
2023/08/29 02:20:53;;;;;;;;;;;13.60;99.90;;;;;;2077418;28;19921;-74
2023/08/29 02:21:53;;;;;;;;;;;13.60;99.90;;;;;;2081432;28;20458;-74
2023/08/29 02:22:54;;;;;;;;;;;13.60;99.90;;;;;;2081344;28;20579;-74
2023/08/29 02:23:54;;;;;;;;;;;13.60;99.90;;;;;;2076103;28;20098;-74
2023/08/29 02:24:56;;;;;;;;;;;13.60;99.90;;;;;;2075658;28;19975;-74
2023/08/29 02:26:02;;;;;;;;;;;13.60;99.90;;;;;;2075900;28;19921;-74
2023/08/29 02:27:04;;;;;;;;;;;13.60;99.90;;;;;;2074865;28;20007;-74
2023/08/29 02:28:04;;;;;;;;;;;13.60;99.90;;;;;;2074850;28;19917;-74
2023/08/29 02:29:05;;;;;;;;;;;13.60;99.90;;;;;;2074978;28;19975;-74
2023/08/29 02:30:06;;;;;;;;;;;13.60;99.90;;;;;;2075189;28;20002;-73
2023/08/29 02:31:08;;;;;;;;;;;13.60;99.90;;;;;;2075142;28;19992;-74
2023/08/29 02:32:08;;;;;;;;;;;13.60;99.90;;;;;;2066890;28;19991;-73
2023/08/29 02:33:09;;;;;;;;;;;13.60;99.90;;;;;;2064251;28;20375;-73
2023/08/29 02:34:09;;;;;;;;;;;13.60;99.90;;;;;;2077112;28;19917;-73
2023/08/29 02:35:10;;;;;;;;;;;13.60;99.90;;;;;;2074887;28;19987;-73
2023/08/29 02:36:10;;;;;;;;;;;13.60;99.90;;;;;;2074936;28;19917;-73
2023/08/29 02:37:11;;;;;;;;;;;13.60;99.90;;;;;;2076074;28;19920;-74
2023/08/29 02:38:11;;;;;;;;;;;13.60;99.90;;;;;;2074884;28;19956;-75
2023/08/29 02:39:12;;;;;;;;;;;13.60;99.90;;;;;;2075057;28;20118;-73
2023/08/29 02:40:13;;;;;;;;;;;13.60;99.90;;;;;;2074739;28;19913;-74
2023/08/29 02:41:13;;;;;;;;;;;13.60;99.90;;;;;;2069312;28;19966;-74
2023/08/29 02:42:14;;;;;;;;;;;13.60;99.90;;;;;;2066524;28;19924;-74
2023/08/29 02:43:14;;;;;;;;;;;13.60;99.90;;;;;;2066825;28;19983;-73
2023/08/29 02:44:15;;;;;;;;;;;13.60;99.90;;;;;;2066609;28;19917;-73
2023/08/29 02:45:16;;;;;;;;;;;13.60;99.90;;;;;;2065771;28;19918;-74
2023/08/29 02:46:16;;;;;;;;;;;13.60;99.90;;;;;;2063769;28;20015;-73
2023/08/29 02:47:17;;;;;;;;;;;13.60;99.90;;;;;;2074730;28;20008;-73
2023/08/29 02:48:18;;;;;;;;;;;13.60;99.90;;;;;;2075490;28;19917;-74
2023/08/29 02:49:18;;;;;;;;;;;13.60;99.90;;;;;;2083370;28;20207;-74
2023/08/29 02:50:19;;;;;;;;;;;13.60;99.90;;;;;;2074861;28;19960;-73
2023/08/29 02:51:19;;;;;;;;;;;13.60;99.90;;;;;;2075123;28;19924;-74
2023/08/29 02:52:20;;;;;;;;;;;13.60;99.90;;;;;;2075668;28;19925;-74
2023/08/29 02:53:21;;;;;;;;;;;13.60;99.90;;;;;;2074975;28;20016;-74
2023/08/29 02:54:21;;;;;;;;;;;13.60;99.90;;;;;;2083032;28;19913;-73
2023/08/29 02:55:22;;;;;;;;;;;13.60;99.90;;;;;;2075126;28;20567;-73
2023/08/29 02:56:23;;;;;;;;;;;13.60;99.90;;;;;;2075032;28;19920;-74
2023/08/29 02:57:23;;;;;;;;;;;13.60;99.90;;;;;;2075080;28;19999;-74
2023/08/29 02:58:24;;;;;;;;;;;13.60;99.90;;;;;;2077282;28;19913;-74
2023/08/29 02:59:26;;;;;;;;;;;13.60;99.90;;;;;;2078954;28;20215;-74
2023/08/29 03:00:27;;;;;;;;;;;13.60;99.90;;;;;;2077440;28;19917;-74
2023/08/29 03:01:27;;;;;;;;;;;13.60;99.90;;;;;;2075039;28;19980;-74
2023/08/29 03:02:29;;;;;;;;;;;13.60;99.90;;;;;;2074990;28;19917;-73
2023/08/29 03:03:29;;;;;;;;;;;13.60;99.90;;;;;;2080650;28;20704;-74
2023/08/29 03:04:30;;;;;;;;;;;13.60;99.90;;;;;;2079404;28;19975;-74
2023/08/29 03:05:31;;;;;;;;;;;13.60;99.90;;;;;;2075010;28;20090;-74
2023/08/29 03:06:32;;;;;;;;;;;13.60;99.90;;;;;;2076173;28;19916;-74
2023/08/29 03:07:32;;;;;;;;;;;13.60;99.90;;;;;;2082193;28;20304;-74
2023/08/29 03:08:33;;;;;;;;;;;13.60;99.90;;;;;;2067951;28;19972;-75
2023/08/29 03:09:33;;;;;;;;;;;13.60;99.90;;;;;;2062490;28;19956;-74
2023/08/29 03:10:38;;;;;;;;;;;13.70;99.90;;;;;;2074019;28;19963;-74
2023/08/29 03:11:38;;;;;;;;;;;13.70;99.90;;;;;;2075215;28;20379;-73
2023/08/29 03:12:39;;;;;;;;;;;13.60;99.90;;;;;;2066725;28;19921;-75
2023/08/29 03:13:40;;;;;;;;;;;13.60;99.90;;;;;;2074420;28;19952;-74
2023/08/29 03:14:41;;;;;;;;;;;13.60;99.90;;;;;;2061538;28;20258;-73
2023/08/29 03:15:41;;;;;;;;;;;13.60;99.90;;;;;;2066636;28;19917;-73
2023/08/29 03:16:42;;;;;;;;;;;13.60;99.90;;;;;;2075125;28;20374;-74
2023/08/29 03:17:43;;;;;;;;;;;13.60;99.90;;;;;;2074590;28;19921;-73
2023/08/29 03:18:44;;;;;;;;;;;13.60;99.90;;;;;;2063879;28;19918;-73
2023/08/29 03:19:46;;;;;;;;;;;13.60;99.90;;;;;;2070288;28;19949;-74
2023/08/29 03:20:46;;;;;;;;;;;13.60;99.90;;;;;;2062554;28;19921;-73
2023/08/29 03:21:47;;;;;;;;;;;13.50;99.90;;;;;;2058567;28;19983;-73
2023/08/29 03:22:47;;;;;;;;;;;13.60;99.90;;;;;;2061568;28;19913;-74
2023/08/29 03:23:48;;;;;;;;;;;13.60;99.90;;;;;;2066632;28;19913;-74
2023/08/29 03:24:48;;;;;;;;;;;13.60;99.90;;;;;;2074770;28;19917;-74
2023/08/29 03:25:49;;;;;;;;;;;13.60;99.90;;;;;;2076017;28;19931;-74
2023/08/29 03:26:50;;;;;;;;;;;13.60;99.90;;;;;;2072474;28;19997;-73
2023/08/29 03:27:51;;;;;;;;;;;13.50;99.90;;;;;;2074826;28;19917;-74
2023/08/29 03:28:52;;;;;;;;;;;13.60;99.90;;;;;;2075050;28;19917;-73
2023/08/29 03:29:52;;;;;;;;;;;13.50;99.90;;;;;;2075261;28;19947;-74
2023/08/29 03:30:53;;;;;;;;;;;13.50;99.90;;;;;;2074725;28;20400;-74
2023/08/29 03:31:53;;;;;;;;;;;13.50;99.90;;;;;;2075213;28;19943;-74
2023/08/29 03:32:54;;;;;;;;;;;13.50;99.90;;;;;;2074574;28;19928;-68
2023/08/29 03:33:55;;;;;;;;;;;13.50;99.90;;;;;;2074796;28;20372;-67
2023/08/29 03:34:58;;;;;;;;;;;13.50;99.90;;;;;;2068470;28;20015;-71
2023/08/29 03:35:59;;;;;;;;;;;13.40;99.90;;;;;;2066123;28;20587;-71
2023/08/29 03:36:59;;;;;;;;;;;13.40;99.90;;;;;;2074526;28;20384;-73
2023/08/29 03:38:00;;;;;;;;;;;13.40;99.90;;;;;;2065378;28;19917;-72
2023/08/29 03:39:02;;;;;;;;;;;13.40;99.90;;;;;;2059999;28;20396;-72
2023/08/29 03:40:03;;;;;;;;;;;13.40;99.90;;;;;;2066468;28;19980;-72
2023/08/29 03:41:04;;;;;;;;;;;13.40;99.90;;;;;;2074356;28;19917;-72
2023/08/29 03:42:05;;;;;;;;;;;13.40;99.90;;;;;;2082913;28;19966;-72
2023/08/29 03:43:05;;;;;;;;;;;13.40;99.90;;;;;;2074704;28;20414;-72
2023/08/29 03:44:06;;;;;;;;;;;13.40;99.90;;;;;;2074566;28;20032;-72
2023/08/29 03:45:07;;;;;;;;;;;13.40;99.90;;;;;;2074600;28;19921;-72
2023/08/29 03:46:08;;;;;;;;;;;13.30;99.90;;;;;;2066366;28;19914;-72
2023/08/29 03:47:09;;;;;;;;;;;13.30;99.90;;;;;;2050953;28;20278;-72
2023/08/29 03:48:10;;;;;;;;;;;13.30;99.90;;;;;;2062373;28;19971;-72
2023/08/29 03:49:12;;;;;;;;;;;13.40;99.90;;;;;;2070686;28;20392;-72
2023/08/29 03:50:13;;;;;;;;;;;13.40;99.90;;;;;;2069966;28;19917;-72
2023/08/29 03:51:14;;;;;;;;;;;13.40;99.90;;;;;;2074905;28;19988;-72
2023/08/29 03:52:24;;;;;;;;;;;13.40;99.90;;;;;;2074621;28;19917;-73
2023/08/29 03:53:26;;;;;;;;;;;13.40;99.90;;;;;;2074610;28;20343;-72
2023/08/29 03:54:26;;;;;;;;;;;13.40;99.90;;;;;;2066637;28;19922;-72
2023/08/29 03:55:27;;;;;;;;;;;13.50;99.90;;;;;;2066579;28;20004;-72
2023/08/29 03:56:27;;;;;;;;;;;13.40;99.90;;;;;;2072505;28;19917;-72
2023/08/29 03:57:28;;;;;;;;;;;13.50;99.90;;;;;;2068346;28;20009;-72
2023/08/29 03:58:29;;;;;;;;;;;13.50;99.90;;;;;;2066579;28;19913;-72
2023/08/29 03:59:30;;;;;;;;;;;13.50;99.90;;;;;;2074596;28;20362;-72
2023/08/29 04:00:31;;;;;;;;;;;13.50;99.90;;;;;;2080369;28;19982;-72
2023/08/29 04:01:31;;;;;;;;;;;13.50;99.90;;;;;;2074734;28;20373;-72
2023/08/29 04:02:32;;;;;;;;;;;13.50;99.90;;;;;;2074775;28;20453;-72
2023/08/29 04:03:32;;;;;;;;;;;13.50;99.90;;;;;;2083127;28;19917;-72
2023/08/29 04:04:34;;;;;;;;;;;13.50;99.90;;;;;;2075836;28;20007;-72
2023/08/29 04:05:37;;;;;;;;;;;13.40;99.90;;;;;;2066816;28;20210;-73
2023/08/29 04:06:38;;;;;;;;;;;13.50;99.90;;;;;;2074735;28;19917;-72
2023/08/29 04:07:38;;;;;;;;;;;13.40;99.90;;;;;;2075438;28;20000;-72
2023/08/29 04:08:39;;;;;;;;;;;13.40;99.90;;;;;;2074770;28;20352;-73
2023/08/29 04:09:39;;;;;;;;;;;13.40;99.90;;;;;;2063545;28;20450;-72
2023/08/29 04:10:41;;;;;;;;;;;13.40;99.90;;;;;;2078260;28;19913;-72
2023/08/29 04:11:41;;;;;;;;;;;13.40;99.90;;;;;;2071330;28;19917;-73
2023/08/29 04:12:42;;;;;;;;;;;13.40;99.90;;;;;;2058900;28;20020;-73
2023/08/29 04:13:43;;;;;;;;;;;13.40;99.90;;;;;;2074659;28;19913;-72
2023/08/29 04:14:43;;;;;;;;;;;13.30;99.90;;;;;;2068691;28;19921;-73
2023/08/29 04:15:45;;;;;;;;;;;13.30;99.90;;;;;;2066748;28;19917;-72
2023/08/29 04:16:45;;;;;;;;;;;13.30;99.90;;;;;;2071561;28;20320;-71
2023/08/29 04:17:46;;;;;;;;;;;13.30;99.90;;;;;;2075287;28;19917;-71
2023/08/29 04:18:46;;;;;;;;;;;13.30;99.90;;;;;;2070273;28;20017;-72
2023/08/29 04:19:47;;;;;;;;;;;13.30;99.90;;;;;;2061850;28;20304;-72
2023/08/29 04:20:48;;;;;;;;;;;13.30;99.90;;;;;;2070175;28;19917;-73
2023/08/29 04:21:49;;;;;;;;;;;13.30;99.90;;;;;;2075187;28;20288;-72
2023/08/29 04:22:49;;;;;;;;;;;13.30;99.90;;;;;;2069650;28;19963;-72
2023/08/29 04:23:50;;;;;;;;;;;13.30;99.90;;;;;;2074438;28;19916;-72
2023/08/29 04:24:50;;;;;;;;;;;13.30;99.90;;;;;;2074916;28;19917;-72
2023/08/29 04:25:58;;;;;;;;;;;13.20;99.90;;;;;;2074781;28;20424;-72
2023/08/29 04:26:58;;;;;;;;;;;13.20;99.90;;;;;;2068239;28;20097;-72
2023/08/29 04:27:59;;;;;;;;;;;13.20;99.90;;;;;;2070473;28;19936;-72
2023/08/29 04:29:00;;;;;;;;;;;13.20;99.90;;;;;;2073279;28;19917;-72
2023/08/29 04:30:00;;;;;;;;;;;13.20;99.90;;;;;;2068536;28;20043;-72
2023/08/29 04:31:07;;;;;;;;;;;13.20;99.90;;;;;;2062468;28;19917;-72
2023/08/29 04:32:08;;;;;;;;;;;13.20;99.90;;;;;;2069907;28;20046;-72
2023/08/29 04:33:09;;;;;;;;;;;13.20;99.90;;;;;;2075453;28;20346;-72
2023/08/29 04:34:09;;;;;;;;;;;13.20;99.90;;;;;;2082626;28;20354;-72
2023/08/29 04:35:10;;;;;;;;;;;13.20;99.90;;;;;;2074536;28;20034;-71
2023/08/29 04:36:14;;;;;;;;;;;13.20;99.90;;;;;;2074929;28;20418;-72
2023/08/29 04:37:15;;;;;;;;;;;13.20;99.90;;;;;;2081610;28;20295;-72
2023/08/29 04:38:15;;;;;;;;;;;13.20;99.90;;;;;;2074513;28;19924;-72
2023/08/29 04:39:16;;;;;;;;;;;13.20;99.90;;;;;;2062252;28;19918;-71
2023/08/29 04:40:17;;;;;;;;;;;13.20;99.90;;;;;;2071186;28;20632;-72
2023/08/29 04:41:17;;;;;;;;;;;13.20;99.90;;;;;;2075409;28;19968;-72
2023/08/29 04:42:18;;;;;;;;;;;13.20;99.90;;;;;;2074734;28;19936;-71
2023/08/29 04:43:19;;;;;;;;;;;13.20;99.90;;;;;;2075035;28;19913;-73
2023/08/29 04:44:19;;;;;;;;;;;13.20;99.90;;;;;;2075501;28;19921;-71
2023/08/29 04:45:20;;;;;;;;;;;13.20;99.90;;;;;;2075510;28;20338;-72
2023/08/29 04:46:21;;;;;;;;;;;13.10;99.90;;;;;;2076074;28;19913;-71
2023/08/29 04:47:22;;;;;;;;;;;13.20;99.90;;;;;;2075700;28;20000;-75
2023/08/29 04:48:22;;;;;;;;;;;13.10;99.90;;;;;;2084985;28;19967;-72
2023/08/29 04:49:23;;;;;;;;;;;13.20;99.90;;;;;;2080624;28;20020;-72
2023/08/29 04:50:25;;;;;;;;;;;13.10;99.90;;;;;;2078162;28;19920;-72
2023/08/29 04:51:27;;;;;;;;;;;13.10;99.90;;;;;;2076555;28;19928;-72
2023/08/29 04:52:27;;;;;;;;;;;13.10;99.90;;;;;;2075790;28;19928;-74
2023/08/29 04:53:28;;;;;;;;;;;13.10;99.90;;;;;;2076219;28;19950;-71
2023/08/29 04:54:29;;;;;;;;;;;13.10;99.90;;;;;;2063707;28;19918;-72
2023/08/29 04:55:30;;;;;;;;;;;13.10;99.90;;;;;;2067759;28;20375;-72
2023/08/29 04:56:30;;;;;;;;;;;13.10;99.90;;;;;;2077812;28;19991;-72
2023/08/29 04:57:34;;;;;;;;;;;13.10;99.90;;;;;;2060853;28;19918;-72
2023/08/29 04:58:34;;;;;;;;;;;13.10;99.90;;;;;;2055833;28;19917;-72
2023/08/29 04:59:35;;;;;;;;;;;13.10;99.90;;;;;;2060677;28;20459;-72
2023/08/29 05:00:36;;;;;;;;;;;13.10;99.90;;;;;;2073336;28;19922;-73
2023/08/29 05:01:37;;;;;;;;;;;13.10;99.90;;;;;;2071806;28;19918;-72
2023/08/29 05:02:42;;;;;;;;;;;13.10;99.90;;;;;;2062914;28;19921;-72
2023/08/29 05:03:43;;;;;;;;;;;13.10;99.90;;;;;;2052052;28;19914;-72
2023/08/29 05:04:46;;;;;;;;;;;13.10;99.90;;;;;;2067461;28;19917;-72
2023/08/29 05:05:47;;;;;;;;;;;13.10;99.90;;;;;;2080014;28;19987;-73
2023/08/29 05:06:49;;;;;;;;;;;13.10;99.90;;;;;;2080189;28;19948;-72
2023/08/29 05:07:52;;;;;;;;;;;13.10;99.90;;;;;;2067990;28;19956;-73
2023/08/29 05:08:57;;;;;;;;;;;13.10;99.90;;;;;;2063355;28;19926;-72
2023/08/29 05:09:58;;;;;;;;;;;13.10;99.90;;;;;;2060823;28;19917;-72
2023/08/29 05:10:58;;;;;;;;;;;13.10;99.90;;;;;;2067243;28;20409;-72
2023/08/29 05:11:59;;;;;;;;;;;13.10;99.90;;;;;;2075741;28;20431;-73
2023/08/29 05:12:59;;;;;;;;;;;13.10;99.90;;;;;;2069840;28;20387;-72
2023/08/29 05:14:00;;;;;;;;;;;13.10;99.90;;;;;;2064859;28;19944;-73
2023/08/29 05:15:01;;;;;;;;;;;13.10;99.90;;;;;;2061663;28;19968;-73
2023/08/29 05:16:03;;;;;;;;;;;13.10;99.90;;;;;;2061548;28;20654;-73
2023/08/29 05:17:04;;;;;;;;;;;13.10;99.90;;;;;;2065921;28;19960;-73
2023/08/29 05:18:04;;;;;;;;;;;13.10;99.90;;;;;;2067763;28;20315;-73
2023/08/29 05:19:07;;;;;;;;;;;13.10;99.90;;;;;;2065024;28;19917;-73
2023/08/29 05:20:09;;;;;;;;;;;13.10;99.90;;;;;;2074556;28;20426;-73
2023/08/29 05:21:10;;;;;;;;;;;13.10;99.90;;;;;;2075854;28;19917;-73
2023/08/29 05:22:10;;;;;;;;;;;13.10;99.90;;;;;;2076216;28;20585;-72
2023/08/29 05:23:11;;;;;;;;;;;13.10;99.90;;;;;;2075524;28;19917;-73
2023/08/29 05:24:12;;;;;;;;;;;13.10;99.90;;;;;;2075965;28;19984;-73
2023/08/29 05:25:12;;;;;;;;;;;13.10;99.90;;;;;;2067646;28;19918;-72
2023/08/29 05:26:13;;;;;;;;;;;13.10;99.90;;;;;;2059370;28;19914;-72
2023/08/29 05:27:14;;;;;;;;;;;13.10;99.90;;;;;;2062657;28;19948;-73
2023/08/29 05:28:14;;;;;;;;;;;13.10;99.90;;;;;;2067433;28;19918;-73
2023/08/29 05:29:15;;;;;;;;;;;13.10;99.90;;;;;;2067511;28;20345;-72
2023/08/29 05:30:15;;;;;;;;;;;13.10;99.90;;;;;;2067604;28;19914;-72
2023/08/29 05:31:16;;;;;;;;;;;13.10;99.90;;;;;;2075435;28;20411;-72
2023/08/29 05:32:17;;;;;;;;;;;13.10;99.90;;;;;;2072268;28;19995;-72
2023/08/29 05:33:17;;;;;;;;;;;13.10;99.90;;;;;;2076511;28;19987;-72
2023/08/29 05:34:18;;;;;;;;;;;13.10;99.90;;;;;;2072643;28;19998;-73
2023/08/29 05:35:18;;;;;;;;;;;13.10;99.90;;;;;;2083733;28;19920;-72
2023/08/29 05:36:19;;;;;;;;;;;13.10;99.90;;;;;;2075613;28;19999;-72
2023/08/29 05:37:20;;;;;;;;;;;13.10;99.90;;;;;;2067616;28;19975;-71
2023/08/29 05:38:25;;;;;;;;;;;13.10;99.90;;;;;;2067360;28;20392;-72
2023/08/29 05:39:25;;;;;;;;;;;13.10;99.90;;;;;;2069312;28;19918;-72
2023/08/29 05:40:26;;;;;;;;;;;13.10;99.90;;;;;;2073858;28;20315;-72
2023/08/29 05:41:29;;;;;;;;;;;13.20;99.90;;;;;;2072864;28;19924;-71
2023/08/29 05:42:30;;;;;;;;;;;13.20;99.90;;;;;;2075560;28;19913;-74
2023/08/29 05:43:30;;;;;;;;;;;13.20;99.90;;;;;;2083750;28;19947;-72
2023/08/29 05:44:31;;;;;;;;;;;13.20;99.90;;;;;;2075507;28;19995;-75
2023/08/29 05:45:31;;;;;;;;;;;13.20;99.90;;;;;;2061234;28;19949;-74
2023/08/29 05:46:32;;;;;;;;;;;13.20;99.90;;;;;;2075505;28;19986;-71
2023/08/29 05:47:32;;;;;;;;;;;13.20;99.90;;;;;;2076790;28;19939;-71
2023/08/29 05:48:33;;;;;;;;;;;13.20;99.90;;;;;;2083582;28;20003;-71
2023/08/29 05:49:34;;;;;;;;;;;13.30;99.90;;;;;;2075192;28;19949;-72
2023/08/29 05:50:34;;;;;;;;;;;13.20;99.90;;;;;;2075721;28;20337;-72
2023/08/29 05:51:35;;;;;;;;;;;13.30;99.90;;;;;;2083720;28;19920;-72
2023/08/29 05:52:35;;;;;;;;;;;13.30;99.90;;;;;;2075147;28;20028;-72
2023/08/29 05:53:36;;;;;;;;;;;13.20;99.90;;;;;;2075430;28;19944;-72
2023/08/29 05:54:36;;;;;;;;;;;13.30;99.90;;;;;;2066973;28;19933;-73
2023/08/29 05:55:37;;;;;;;;;;;13.30;99.90;;;;;;2055575;28;19929;-73
2023/08/29 05:56:38;;;;;;;;;;;13.30;99.90;;;;;;2071473;28;20225;-72